Time;durP1;ratioP1;P1;durP2;ratioP2;P2;SDS_P1;SDS_P2;PMS_P1;PMS_P2;Temp;Humidity;BMP_temperature;BMP_pressure;BME280_temperature;BME280_humidity;BME280_pressure;Samples;Min_cycle;Max_cycle;Signal;HPM_P1;HPM_P2
2023/09/25 00:00:19;;;;;;;17.00;8.10;;;;;;;;;;467445;28;1308;-73
2023/09/25 00:00:35;;;;;;;17.75;7.55;;;;;;;;;;466861;28;1195;-74
2023/09/25 00:00:50;;;;;;;18.52;8.23;;;;;;;;;;467663;28;1108;-73
2023/09/25 00:01:06;;;;;;;16.77;8.20;;;;;;;;;;464329;28;1271;-72
2023/09/25 00:01:21;;;;;;;16.60;8.00;;;;;;;;;;462888;28;1337;-73
2023/09/25 00:01:36;;;;;;;15.55;7.43;;;;;;;;;;462314;28;1074;-73
2023/09/25 00:01:52;;;;;;;13.43;6.83;;;;;;;;;;462533;28;1180;-73
2023/09/25 00:02:07;;;;;;;12.97;6.43;;;;;;;;;;462267;28;1268;-73
2023/09/25 00:02:23;;;;;;;11.30;5.28;;;;;;;;;;462266;28;1160;-73
2023/09/25 00:02:38;;;;;;;8.90;4.53;;;;;;;;;;463241;28;1154;-73
2023/09/25 00:02:53;;;;;;;9.35;4.45;;;;;;;;;;463449;28;1600;-73
2023/09/25 00:03:09;;;;;;;10.77;4.57;;;;;;;;;;462239;28;1383;-74
2023/09/25 00:03:24;;;;;;;11.05;4.82;;;;;;;;;;465844;28;1760;-74
2023/09/25 00:03:40;;;;;;;11.23;4.73;;;;;;;;;;465731;28;1122;-73
2023/09/25 00:03:55;;;;;;;10.27;4.60;;;;;;;;;;464754;28;1063;-73
2023/09/25 00:04:10;;;;;;;9.40;4.47;;;;;;;;;;466596;28;1267;-73
2023/09/25 00:04:28;;;;;;;10.60;4.60;;;;;;;;;;466139;28;922;-73
2023/09/25 00:04:43;;;;;;;12.30;5.07;;;;;;;;;;467050;28;1131;-73
2023/09/25 00:04:58;;;;;;;12.80;5.10;;;;;;;;;;466697;28;974;-73
2023/09/25 00:05:16;;;;;;;10.33;4.53;;;;;;;;;;466975;28;1215;-73
2023/09/25 00:05:31;;;;;;;6.32;3.40;;;;;;;;;;467047;28;1126;-73
2023/09/25 00:05:47;;;;;;;4.77;2.70;;;;;;;;;;467344;28;984;-74
2023/09/25 00:06:04;;;;;;;5.25;2.45;;;;;;;;;;468478;28;1166;-73
2023/09/25 00:06:19;;;;;;;5.38;2.40;;;;;;;;;;469049;28;992;-73
2023/09/25 00:06:35;;;;;;;5.43;2.57;;;;;;;;;;467925;28;1145;-73
2023/09/25 00:06:51;;;;;;;5.70;2.42;;;;;;;;;;468517;28;1071;-72
2023/09/25 00:07:06;;;;;;;4.25;2.10;;;;;;;;;;467282;28;1104;-73
2023/09/25 00:07:22;;;;;;;3.40;2.10;;;;;;;;;;469207;28;1087;-73
2023/09/25 00:07:38;;;;;;;4.53;2.60;;;;;;;;;;465219;28;1287;-74
2023/09/25 00:07:54;;;;;;;6.25;2.88;;;;;;;;;;466463;28;1316;-73
2023/09/25 00:08:09;;;;;;;7.43;2.75;;;;;;;;;;465657;28;1139;-73
2023/09/25 00:08:25;;;;;;;6.90;2.70;;;;;;;;;;464391;28;1209;-73
2023/09/25 00:08:40;;;;;;;4.77;2.53;;;;;;;;;;462363;28;1191;-73
2023/09/25 00:08:55;;;;;;;4.85;2.47;;;;;;;;;;466037;28;1174;-73
2023/09/25 00:09:11;;;;;;;3.57;2.10;;;;;;;;;;463909;28;1195;-73
2023/09/25 00:09:27;;;;;;;3.00;1.83;;;;;;;;;;463506;28;1189;-73
2023/09/25 00:09:42;;;;;;;3.55;2.00;;;;;;;;;;461925;28;1313;-73
2023/09/25 00:09:58;;;;;;;3.40;2.00;;;;;;;;;;463440;28;1237;-73
2023/09/25 00:10:13;;;;;;;3.50;2.20;;;;;;;;;;463949;28;1146;-73
2023/09/25 00:10:31;;;;;;;3.50;2.25;;;;;;;;;;464432;28;1335;-73
2023/09/25 00:10:46;;;;;;;3.70;2.10;;;;;;;;;;462759;28;1105;-73
2023/09/25 00:11:03;;;;;;;4.03;2.20;;;;;;;;;;465777;28;1147;-73
2023/09/25 00:11:19;;;;;;;3.95;2.28;;;;;;;;;;465021;28;956;-73
2023/09/25 00:11:34;;;;;;;3.13;1.97;;;;;;;;;;465462;28;887;-73
2023/09/25 00:11:49;;;;;;;3.75;1.90;;;;;;;;;;466094;28;1053;-73
2023/09/25 00:12:05;;;;;;;5.07;2.43;;;;;;;;;;465803;28;1094;-73
2023/09/25 00:12:21;;;;;;;5.18;2.67;;;;;;;;;;465085;28;1352;-73
2023/09/25 00:12:37;;;;;;;4.05;2.33;;;;;;;;;;467133;28;1141;-73
2023/09/25 00:12:52;;;;;;;4.20;2.23;;;;;;;;;;468381;28;1435;-73
2023/09/25 00:13:08;;;;;;;4.70;2.33;;;;;;;;;;467115;28;1054;-73
2023/09/25 00:13:23;;;;;;;4.32;2.53;;;;;;;;;;467135;28;2017;-73
2023/09/25 00:13:39;;;;;;;4.53;3.10;;;;;;;;;;466492;28;1131;-73
2023/09/25 00:13:54;;;;;;;4.93;2.97;;;;;;;;;;466387;28;1335;-73
2023/09/25 00:14:09;;;;;;;5.00;2.83;;;;;;;;;;464928;28;1203;-73
2023/09/25 00:14:25;;;;;;;4.83;3.10;;;;;;;;;;464844;28;1130;-73
2023/09/25 00:14:40;;;;;;;5.03;3.30;;;;;;;;;;465224;28;912;-73
2023/09/25 00:14:55;;;;;;;5.77;3.60;;;;;;;;;;465955;28;1271;-73
2023/09/25 00:15:11;;;;;;;6.20;3.73;;;;;;;;;;467386;28;1178;-73
2023/09/25 00:15:26;;;;;;;6.10;3.40;;;;;;;;;;466147;28;1219;-73
2023/09/25 00:15:44;;;;;;;5.60;3.30;;;;;;;;;;466110;28;1157;-73
2023/09/25 00:15:59;;;;;;;5.97;3.55;;;;;;;;;;467757;28;1064;-73
2023/09/25 00:16:16;;;;;;;5.43;3.20;;;;;;;;;;469574;28;1274;-73
2023/09/25 00:16:31;;;;;;;4.85;3.10;;;;;;;;;;467261;28;1375;-72
2023/09/25 00:16:47;;;;;;;4.07;2.73;;;;;;;;;;467478;28;1122;-73
2023/09/25 00:17:02;;;;;;;4.38;2.40;;;;;;;;;;465322;28;1244;-73
2023/09/25 00:17:18;;;;;;;4.87;2.37;;;;;;;;;;466625;28;1156;-73
2023/09/25 00:17:33;;;;;;;4.60;2.30;;;;;;;;;;467195;28;1274;-73
2023/09/25 00:17:48;;;;;;;4.82;2.35;;;;;;;;;;465095;28;1318;-73
2023/09/25 00:18:04;;;;;;;4.50;2.40;;;;;;;;;;466508;28;1627;-73
2023/09/25 00:18:19;;;;;;;4.03;2.40;;;;;;;;;;465981;28;1141;-73
2023/09/25 00:18:35;;;;;;;4.00;2.40;;;;;;;;;;463679;28;1146;-73
2023/09/25 00:18:51;;;;;;;3.57;2.27;;;;;;;;;;465028;28;951;-73
2023/09/25 00:19:06;;;;;;;3.90;2.10;;;;;;;;;;461609;28;1106;-73
2023/09/25 00:19:22;;;;;;;4.10;2.10;;;;;;;;;;463196;28;1296;-73
2023/09/25 00:19:38;;;;;;;4.43;2.10;;;;;;;;;;464584;28;1209;-73
2023/09/25 00:19:53;;;;;;;4.85;2.05;;;;;;;;;;464560;28;973;-73
2023/09/25 00:20:14;;;;;;;4.43;2.10;;;;;;;;;;465820;28;1443;-73
2023/09/25 00:20:30;;;;;;;3.58;1.98;;;;;;;;;;465945;28;1059;-73
2023/09/25 00:20:45;;;;;;;4.10;2.00;;;;;;;;;;464027;28;1611;-73
2023/09/25 00:21:01;;;;;;;4.93;2.20;;;;;;;;;;464090;28;1527;-73
2023/09/25 00:21:16;;;;;;;4.67;2.10;;;;;;;;;;465243;28;1327;-73
2023/09/25 00:21:31;;;;;;;4.20;2.05;;;;;;;;;;465419;28;1208;-73
2023/09/25 00:21:47;;;;;;;4.40;2.00;;;;;;;;;;467600;28;1268;-73
2023/09/25 00:22:03;;;;;;;4.80;2.10;;;;;;;;;;465156;28;1236;-73
2023/09/25 00:22:18;;;;;;;4.10;2.10;;;;;;;;;;465324;28;1279;-73
2023/09/25 00:22:33;;;;;;;3.33;2.00;;;;;;;;;;463567;28;1344;-73
2023/09/25 00:22:49;;;;;;;3.57;2.00;;;;;;;;;;465130;28;1424;-73
2023/09/25 00:23:05;;;;;;;3.33;1.90;;;;;;;;;;464957;28;1431;-73
2023/09/25 00:23:20;;;;;;;3.30;1.83;;;;;;;;;;464662;28;1300;-73
2023/09/25 00:23:36;;;;;;;3.27;1.80;;;;;;;;;;464912;28;1381;-73
2023/09/25 00:23:51;;;;;;;3.10;1.83;;;;;;;;;;465430;28;1284;-73
2023/09/25 00:24:07;;;;;;;3.05;1.98;;;;;;;;;;465943;28;1196;-73
2023/09/25 00:24:22;;;;;;;3.67;2.10;;;;;;;;;;462684;28;1225;-73
2023/09/25 00:24:38;;;;;;;3.53;2.03;;;;;;;;;;463617;28;1304;-73
2023/09/25 00:24:54;;;;;;;4.20;1.90;;;;;;;;;;466163;28;1828;-73
2023/09/25 00:25:09;;;;;;;5.03;1.92;;;;;;;;;;463392;28;1329;-73
2023/09/25 00:25:24;;;;;;;3.70;1.92;;;;;;;;;;462571;28;1238;-73
2023/09/25 00:25:40;;;;;;;2.93;1.90;;;;;;;;;;462908;28;1171;-73
2023/09/25 00:26:02;;;;;;;3.27;1.93;;;;;;;;;;465691;28;1186;-73
2023/09/25 00:26:17;;;;;;;4.22;1.90;;;;;;;;;;465927;28;1095;-73
2023/09/25 00:26:33;;;;;;;3.87;1.80;;;;;;;;;;466376;28;1208;-73
2023/09/25 00:26:49;;;;;;;3.30;1.80;;;;;;;;;;466998;28;1412;-73
2023/09/25 00:27:04;;;;;;;3.97;1.90;;;;;;;;;;465137;28;1265;-73
2023/09/25 00:27:19;;;;;;;3.90;1.83;;;;;;;;;;463425;28;1249;-73
2023/09/25 00:27:35;;;;;;;4.70;1.70;;;;;;;;;;461868;28;1193;-73
2023/09/25 00:27:51;;;;;;;5.93;1.97;;;;;;;;;;461578;28;1325;-73
2023/09/25 00:28:06;;;;;;;4.85;1.85;;;;;;;;;;463860;28;1211;-73
2023/09/25 00:28:22;;;;;;;3.30;1.60;;;;;;;;;;465171;28;1140;-73
2023/09/25 00:28:39;;;;;;;7.03;1.80;;;;;;;;;;465494;28;1115;-73
2023/09/25 00:28:54;;;;;;;6.38;1.80;;;;;;;;;;463206;28;1452;-73
2023/09/25 00:29:11;;;;;;;3.08;1.98;;;;;;;;;;463978;28;1137;-73
2023/09/25 00:29:26;;;;;;;3.33;2.00;;;;;;;;;;466251;28;1542;-74
2023/09/25 00:29:42;;;;;;;3.53;1.90;;;;;;;;;;467294;28;1084;-73
2023/09/25 00:29:58;;;;;;;4.13;1.93;;;;;;;;;;464390;28;1256;-74
2023/09/25 00:30:14;;;;;;;3.70;1.85;;;;;;;;;;463997;28;1511;-73
2023/09/25 00:30:29;;;;;;;2.95;1.90;;;;;;;;;;464157;28;1208;-73
2023/09/25 00:30:45;;;;;;;2.70;1.83;;;;;;;;;;464493;28;1314;-73
2023/09/25 00:31:00;;;;;;;2.60;1.80;;;;;;;;;;465813;28;1532;-73
2023/09/25 00:31:16;;;;;;;2.78;1.80;;;;;;;;;;467531;28;1466;-73
2023/09/25 00:31:31;;;;;;;3.10;1.87;;;;;;;;;;468517;28;1359;-73
2023/09/25 00:31:47;;;;;;;3.63;1.90;;;;;;;;;;466709;28;1412;-74
2023/09/25 00:32:02;;;;;;;3.90;1.90;;;;;;;;;;469403;28;1354;-73
2023/09/25 00:32:18;;;;;;;3.10;1.80;;;;;;;;;;469523;28;1212;-73
2023/09/25 00:32:33;;;;;;;3.40;1.80;;;;;;;;;;469326;28;1340;-73
2023/09/25 00:32:50;;;;;;;3.55;1.80;;;;;;;;;;469878;28;1339;-73
2023/09/25 00:33:06;;;;;;;2.72;1.80;;;;;;;;;;466741;28;1462;-73
2023/09/25 00:33:22;;;;;;;2.93;1.80;;;;;;;;;;466556;28;1958;-73
2023/09/25 00:33:37;;;;;;;3.25;1.75;;;;;;;;;;467204;28;1280;-73
2023/09/25 00:33:53;;;;;;;3.43;1.77;;;;;;;;;;467349;28;1492;-74
2023/09/25 00:34:08;;;;;;;3.53;1.80;;;;;;;;;;467419;28;1521;-73
2023/09/25 00:34:23;;;;;;;3.17;1.70;;;;;;;;;;467611;28;1444;-73
2023/09/25 00:34:39;;;;;;;3.13;1.50;;;;;;;;;;468207;28;1471;-73
2023/09/25 00:34:55;;;;;;;2.72;1.40;;;;;;;;;;466705;28;1262;-73
2023/09/25 00:35:10;;;;;;;2.90;1.60;;;;;;;;;;465693;28;1287;-73
2023/09/25 00:35:25;;;;;;;3.35;1.77;;;;;;;;;;466960;28;1414;-72
2023/09/25 00:35:42;;;;;;;3.27;1.70;;;;;;;;;;466829;28;1507;-73
2023/09/25 00:35:57;;;;;;;3.50;1.80;;;;;;;;;;466441;28;1180;-73
2023/09/25 00:36:13;;;;;;;4.23;2.03;;;;;;;;;;465554;28;1433;-73
2023/09/25 00:36:28;;;;;;;3.60;1.83;;;;;;;;;;465472;28;1282;-73
2023/09/25 00:36:44;;;;;;;3.45;1.58;;;;;;;;;;465317;28;1311;-73
2023/09/25 00:36:59;;;;;;;3.93;1.70;;;;;;;;;;465442;28;1256;-73
2023/09/25 00:37:14;;;;;;;3.63;1.83;;;;;;;;;;463920;28;1271;-73
2023/09/25 00:37:30;;;;;;;3.90;1.70;;;;;;;;;;465685;28;1313;-73
2023/09/25 00:37:46;;;;;;;3.47;1.70;;;;;;;;;;463265;28;1526;-73
2023/09/25 00:38:03;;;;;;;3.08;1.70;;;;;;;;;;464993;28;1263;-73
2023/09/25 00:38:22;;;;;;;3.10;1.80;;;;;;;;;;463849;28;1149;-73
2023/09/25 00:38:37;;;;;;;3.03;1.73;;;;;;;;;;463605;28;1375;-73
2023/09/25 00:38:53;;;;;;;3.23;1.60;;;;;;;;;;463391;28;1284;-73
2023/09/25 00:39:08;;;;;;;2.97;1.67;;;;;;;;;;465461;28;1535;-73
2023/09/25 00:39:24;;;;;;;3.33;1.70;;;;;;;;;;466801;28;1603;-73
2023/09/25 00:39:42;;;;;;;3.33;1.60;;;;;;;;;;468044;28;1443;-73
2023/09/25 00:39:58;;;;;;;2.60;1.60;;;;;;;;;;467041;28;1342;-73
2023/09/25 00:40:14;;;;;;;2.60;1.50;;;;;;;;;;468369;28;1319;-73
2023/09/25 00:40:30;;;;;;;2.53;1.60;;;;;;;;;;467828;28;1408;-73
2023/09/25 00:40:46;;;;;;;2.57;1.60;;;;;;;;;;466375;28;1332;-73
2023/09/25 00:41:01;;;;;;;3.92;1.60;;;;;;;;;;466903;28;1404;-73
2023/09/25 00:41:16;;;;;;;3.97;1.65;;;;;;;;;;465928;28;1286;-73
2023/09/25 00:41:31;;;;;;;3.63;1.70;;;;;;;;;;466355;28;1240;-73
2023/09/25 00:41:47;;;;;;;3.63;1.70;;;;;;;;;;466245;28;1251;-74
2023/09/25 00:42:02;;;;;;;4.27;1.77;;;;;;;;;;466407;28;1265;-73
2023/09/25 00:42:17;;;;;;;4.82;2.00;;;;;;;;;;464896;28;1311;-73
2023/09/25 00:42:33;;;;;;;3.03;1.90;;;;;;;;;;464016;28;1493;-74
2023/09/25 00:42:49;;;;;;;3.03;1.90;;;;;;;;;;464929;28;1252;-73
2023/09/25 00:43:05;;;;;;;3.03;1.80;;;;;;;;;;465006;28;1424;-73
2023/09/25 00:43:21;;;;;;;2.60;1.70;;;;;;;;;;467172;28;1247;-73
2023/09/25 00:43:37;;;;;;;2.50;1.70;;;;;;;;;;466107;28;1534;-73
2023/09/25 00:43:52;;;;;;;3.80;1.80;;;;;;;;;;466221;28;1348;-72
2023/09/25 00:44:08;;;;;;;3.90;1.70;;;;;;;;;;466442;28;1340;-73
2023/09/25 00:44:23;;;;;;;2.70;1.60;;;;;;;;;;467368;28;1643;-73
2023/09/25 00:44:38;;;;;;;2.95;1.85;;;;;;;;;;467682;28;1135;-74
2023/09/25 00:44:54;;;;;;;3.37;1.93;;;;;;;;;;467939;28;918;-73
2023/09/25 00:45:10;;;;;;;3.20;1.77;;;;;;;;;;467024;28;1087;-73
2023/09/25 00:45:25;;;;;;;3.03;1.80;;;;;;;;;;465867;28;1306;-73
2023/09/25 00:45:41;;;;;;;3.13;1.80;;;;;;;;;;466091;28;1126;-73
2023/09/25 00:45:57;;;;;;;3.72;1.80;;;;;;;;;;464485;28;1507;-73
2023/09/25 00:46:13;;;;;;;2.83;1.63;;;;;;;;;;462816;28;1078;-73
2023/09/25 00:46:28;;;;;;;2.38;1.55;;;;;;;;;;462941;28;1139;-73
2023/09/25 00:46:44;;;;;;;3.60;1.80;;;;;;;;;;462770;28;1207;-73
2023/09/25 00:46:59;;;;;;;4.37;1.97;;;;;;;;;;461887;28;1289;-73
2023/09/25 00:47:15;;;;;;;3.63;1.75;;;;;;;;;;462614;28;990;-73
2023/09/25 00:47:30;;;;;;;3.17;1.70;;;;;;;;;;462454;28;1102;-73
2023/09/25 00:47:46;;;;;;;3.38;1.70;;;;;;;;;;463995;28;1176;-73
2023/09/25 00:48:02;;;;;;;3.30;1.73;;;;;;;;;;465358;28;935;-73
2023/09/25 00:48:24;;;;;;;3.40;1.85;;;;;;;;;;465831;28;1239;-73
2023/09/25 00:48:42;;;;;;;2.72;1.73;;;;;;;;;;467790;28;1148;-73
2023/09/25 00:48:58;;;;;;;2.85;1.70;;;;;;;;;;466942;28;1132;-73
2023/09/25 00:49:14;;;;;;;3.20;1.90;;;;;;;;;;468055;28;1067;-73
2023/09/25 00:49:31;;;;;;;3.60;1.88;;;;;;;;;;469231;28;1136;-73
2023/09/25 00:49:46;;;;;;;3.88;1.77;;;;;;;;;;467935;28;1347;-73
2023/09/25 00:50:03;;;;;;;2.70;1.60;;;;;;;;;;467914;28;1341;-73
2023/09/25 00:50:19;;;;;;;3.08;1.70;;;;;;;;;;468867;28;1134;-73
2023/09/25 00:50:34;;;;;;;3.75;1.80;;;;;;;;;;468091;28;899;-73
2023/09/25 00:50:49;;;;;;;3.90;1.90;;;;;;;;;;467731;28;1144;-73
2023/09/25 00:51:05;;;;;;;3.70;1.80;;;;;;;;;;467508;28;1020;-73
2023/09/25 00:51:21;;;;;;;3.58;1.73;;;;;;;;;;466586;28;1100;-73
2023/09/25 00:51:37;;;;;;;4.03;1.80;;;;;;;;;;467185;28;1259;-73
2023/09/25 00:51:53;;;;;;;3.33;1.90;;;;;;;;;;465868;28;1273;-73
2023/09/25 00:52:09;;;;;;;3.40;2.00;;;;;;;;;;465487;28;973;-73
2023/09/25 00:52:25;;;;;;;3.70;1.87;;;;;;;;;;465222;28;1256;-73
2023/09/25 00:52:43;;;;;;;3.53;1.80;;;;;;;;;;465467;28;1228;-73
2023/09/25 00:53:06;;;;;;;3.22;1.90;;;;;;;;;;465494;28;938;-73
2023/09/25 00:53:24;;;;;;;3.97;1.70;;;;;;;;;;467405;28;1938;-73
2023/09/25 00:53:41;;;;;;;4.03;1.73;;;;;;;;;;466669;28;894;-73
2023/09/25 00:53:56;;;;;;;4.32;1.90;;;;;;;;;;467264;28;1176;-73
2023/09/25 00:54:15;;;;;;;4.35;1.80;;;;;;;;;;467814;28;1147;-73
2023/09/25 00:54:33;;;;;;;3.25;1.70;;;;;;;;;;468663;28;1193;-73
2023/09/25 00:54:48;;;;;;;3.03;1.67;;;;;;;;;;466825;28;1478;-73
2023/09/25 00:55:04;;;;;;;3.17;1.80;;;;;;;;;;466973;28;1137;-73
2023/09/25 00:55:20;;;;;;;3.30;1.88;;;;;;;;;;465978;28;1203;-73
2023/09/25 00:55:35;;;;;;;3.43;1.87;;;;;;;;;;466012;28;1080;-73
2023/09/25 00:55:51;;;;;;;3.17;1.95;;;;;;;;;;464481;28;1385;-73
2023/09/25 00:56:07;;;;;;;3.80;1.90;;;;;;;;;;465568;28;937;-73
2023/09/25 00:56:22;;;;;;;4.57;1.90;;;;;;;;;;462855;28;1260;-74
2023/09/25 00:56:38;;;;;;;3.40;1.80;;;;;;;;;;462283;28;1233;-73
2023/09/25 00:56:53;;;;;;;3.47;1.90;;;;;;;;;;463947;28;914;-73
2023/09/25 00:57:10;;;;;;;4.30;1.80;;;;;;;;;;463800;28;1267;-73
2023/09/25 00:57:27;;;;;;;4.07;1.83;;;;;;;;;;463550;28;1233;-73
2023/09/25 00:57:48;;;;;;;3.85;1.90;;;;;;;;;;462398;28;1215;-73
2023/09/25 00:58:06;;;;;;;3.22;1.80;;;;;;;;;;461341;28;2643;-73
2023/09/25 00:58:21;;;;;;;3.72;2.00;;;;;;;;;;463403;28;1109;-73
2023/09/25 00:58:36;;;;;;;3.25;1.70;;;;;;;;;;463980;28;1230;-73
2023/09/25 00:58:52;;;;;;;2.93;1.70;;;;;;;;;;463541;28;1161;-73
2023/09/25 00:59:07;;;;;;;3.03;1.80;;;;;;;;;;465076;28;1144;-73
2023/09/25 00:59:23;;;;;;;3.05;1.80;;;;;;;;;;463551;28;1494;-73
2023/09/25 00:59:39;;;;;;;3.92;1.90;;;;;;;;;;463534;28;1065;-73
2023/09/25 00:59:55;;;;;;;4.07;1.83;;;;;;;;;;463896;28;970;-73
2023/09/25 01:00:11;;;;;;;3.38;1.80;;;;;;;;;;465646;28;958;-73
2023/09/25 01:00:27;;;;;;;3.30;1.77;;;;;;;;;;464923;28;1183;-73
2023/09/25 01:00:42;;;;;;;2.90;1.70;;;;;;;;;;465338;28;1080;-73
2023/09/25 01:00:59;;;;;;;2.53;1.77;;;;;;;;;;465600;28;930;-73
2023/09/25 01:01:14;;;;;;;2.80;1.60;;;;;;;;;;466591;28;1065;-74
2023/09/25 01:01:30;;;;;;;3.58;1.70;;;;;;;;;;466998;28;1555;-73
2023/09/25 01:01:45;;;;;;;3.80;1.80;;;;;;;;;;467096;28;1231;-73
2023/09/25 01:02:01;;;;;;;3.30;1.80;;;;;;;;;;464672;28;1135;-73
2023/09/25 01:02:16;;;;;;;3.13;1.80;;;;;;;;;;465360;28;1303;-73
2023/09/25 01:02:31;;;;;;;3.00;1.80;;;;;;;;;;464962;28;1090;-73
2023/09/25 01:02:49;;;;;;;3.03;2.00;;;;;;;;;;466366;28;991;-68
2023/09/25 01:03:06;;;;;;;3.20;2.10;;;;;;;;;;468205;28;1387;-73
2023/09/25 01:03:21;;;;;;;2.97;1.90;;;;;;;;;;465830;28;1224;-73
2023/09/25 01:03:36;;;;;;;3.88;2.00;;;;;;;;;;466882;28;1186;-73
2023/09/25 01:03:52;;;;;;;4.47;2.07;;;;;;;;;;469036;28;922;-73
2023/09/25 01:04:08;;;;;;;4.17;2.00;;;;;;;;;;471275;28;1357;-73
2023/09/25 01:04:24;;;;;;;2.95;2.10;;;;;;;;;;472595;28;1235;-73
2023/09/25 01:04:40;;;;;;;3.25;2.10;;;;;;;;;;472413;28;1145;-73
2023/09/25 01:04:55;;;;;;;4.03;2.00;;;;;;;;;;472650;28;1110;-74
2023/09/25 01:05:10;;;;;;;3.80;1.92;;;;;;;;;;471038;28;1370;-73
2023/09/25 01:05:26;;;;;;;3.77;2.13;;;;;;;;;;469713;28;1180;-73
2023/09/25 01:05:42;;;;;;;2.70;1.92;;;;;;;;;;467376;28;1226;-73
2023/09/25 01:05:58;;;;;;;2.60;1.90;;;;;;;;;;465723;28;1118;-73
2023/09/25 01:06:13;;;;;;;2.90;1.75;;;;;;;;;;466911;28;1189;-73
2023/09/25 01:06:29;;;;;;;3.60;1.60;;;;;;;;;;466094;28;1240;-73
2023/09/25 01:06:45;;;;;;;3.83;1.80;;;;;;;;;;466766;28;1234;-73
2023/09/25 01:07:00;;;;;;;3.15;1.90;;;;;;;;;;466715;28;1199;-74
2023/09/25 01:07:17;;;;;;;3.23;1.90;;;;;;;;;;467987;28;965;-73
2023/09/25 01:07:32;;;;;;;3.65;1.90;;;;;;;;;;467971;28;1053;-73
2023/09/25 01:07:47;;;;;;;3.75;1.92;;;;;;;;;;467176;28;1178;-73
2023/09/25 01:08:03;;;;;;;2.90;1.80;;;;;;;;;;466930;28;1181;-73
2023/09/25 01:08:20;;;;;;;3.20;1.70;;;;;;;;;;464942;28;1282;-73
2023/09/25 01:08:35;;;;;;;4.25;1.88;;;;;;;;;;465378;28;1036;-73
2023/09/25 01:08:50;;;;;;;3.40;1.90;;;;;;;;;;466291;28;1164;-73
2023/09/25 01:09:08;;;;;;;3.23;1.90;;;;;;;;;;466886;28;1168;-73
2023/09/25 01:09:23;;;;;;;3.63;1.83;;;;;;;;;;465902;28;1276;-73
2023/09/25 01:09:39;;;;;;;2.87;1.70;;;;;;;;;;466400;28;1130;-73
2023/09/25 01:10:16;;;;;;;2.63;1.60;;;;;;;;;;466638;28;1243;-72
2023/09/25 01:10:31;;;;;;;3.95;1.90;;;;;;;;;;466943;28;1352;-73
2023/09/25 01:10:49;;;;;;;3.75;1.90;;;;;;;;;;467163;28;1055;-73
2023/09/25 01:11:07;;;;;;;2.50;1.85;;;;;;;;;;467511;28;1120;-73
2023/09/25 01:11:22;;;;;;;2.80;1.70;;;;;;;;;;468637;28;968;-73
2023/09/25 01:11:39;;;;;;;3.60;1.80;;;;;;;;;;467881;28;1256;-73
2023/09/25 01:11:56;;;;;;;3.38;1.95;;;;;;;;;;467716;28;1046;-73
2023/09/25 01:12:11;;;;;;;2.88;1.80;;;;;;;;;;467670;28;1097;-73
2023/09/25 01:12:26;;;;;;;3.08;1.63;;;;;;;;;;466325;28;1131;-73
2023/09/25 01:12:43;;;;;;;4.37;1.83;;;;;;;;;;466099;28;1104;-73
2023/09/25 01:13:00;;;;;;;4.78;2.00;;;;;;;;;;467221;28;1165;-74
2023/09/25 01:13:15;;;;;;;3.85;1.92;;;;;;;;;;466269;28;946;-73
2023/09/25 01:13:30;;;;;;;3.75;1.90;;;;;;;;;;467334;28;2017;-73
2023/09/25 01:13:46;;;;;;;3.30;1.80;;;;;;;;;;465514;28;1081;-73
2023/09/25 01:14:01;;;;;;;2.80;1.80;;;;;;;;;;466044;28;1489;-74
2023/09/25 01:14:16;;;;;;;4.53;1.90;;;;;;;;;;466724;28;1098;-73
2023/09/25 01:14:32;;;;;;;4.70;1.90;;;;;;;;;;466171;28;1138;-73
2023/09/25 01:14:47;;;;;;;2.50;1.83;;;;;;;;;;466864;28;1195;-73
2023/09/25 01:15:04;;;;;;;2.47;1.88;;;;;;;;;;465477;28;1069;-73
2023/09/25 01:15:20;;;;;;;3.17;1.90;;;;;;;;;;464920;28;1211;-73
2023/09/25 01:15:36;;;;;;;3.50;1.83;;;;;;;;;;461717;28;1277;-74
2023/09/25 01:15:51;;;;;;;3.53;1.80;;;;;;;;;;463195;28;1236;-73
2023/09/25 01:16:07;;;;;;;3.42;1.80;;;;;;;;;;464390;28;1223;-73
2023/09/25 01:16:22;;;;;;;3.77;2.00;;;;;;;;;;466278;28;1124;-73
2023/09/25 01:16:38;;;;;;;4.10;2.20;;;;;;;;;;467156;28;1347;-73
2023/09/25 01:16:53;;;;;;;3.47;2.00;;;;;;;;;;465870;28;1049;-73
2023/09/25 01:17:08;;;;;;;3.03;1.80;;;;;;;;;;465737;28;1414;-73
2023/09/25 01:17:24;;;;;;;3.20;1.90;;;;;;;;;;464403;28;1461;-74
2023/09/25 01:17:40;;;;;;;3.10;2.00;;;;;;;;;;463258;28;1145;-74
2023/09/25 01:17:56;;;;;;;2.88;1.90;;;;;;;;;;465152;28;1041;-73
2023/09/25 01:18:12;;;;;;;2.78;1.80;;;;;;;;;;471347;28;1381;-73
2023/09/25 01:18:27;;;;;;;2.97;1.90;;;;;;;;;;471725;28;1160;-73
2023/09/25 01:18:42;;;;;;;3.25;1.88;;;;;;;;;;463589;28;1253;-74
2023/09/25 01:18:58;;;;;;;4.43;1.90;;;;;;;;;;463514;28;1218;-73
2023/09/25 01:19:13;;;;;;;4.97;1.90;;;;;;;;;;467041;28;890;-72
2023/09/25 01:19:31;;;;;;;3.95;2.05;;;;;;;;;;467406;28;1162;-73
2023/09/25 01:19:46;;;;;;;3.15;2.00;;;;;;;;;;469634;28;1015;-73
2023/09/25 01:20:17;;;;;;;2.90;2.00;;;;;;;;;;467422;28;2171;-73
2023/09/25 01:20:32;;;;;;;3.97;1.90;;;;;;;;;;467772;28;1517;-73
2023/09/25 01:20:49;;;;;;;3.95;1.80;;;;;;;;;;469321;28;1294;-73
2023/09/25 01:21:04;;;;;;;2.80;1.90;;;;;;;;;;470245;28;983;-73
2023/09/25 01:21:21;;;;;;;4.20;2.10;;;;;;;;;;469111;28;1077;-73
2023/09/25 01:21:36;;;;;;;4.30;2.10;;;;;;;;;;468155;28;987;-73
2023/09/25 01:21:52;;;;;;;2.90;2.00;;;;;;;;;;479055;28;953;-73
2023/09/25 01:22:07;;;;;;;3.00;1.90;;;;;;;;;;472065;28;1115;-73
2023/09/25 01:22:22;;;;;;;3.50;2.00;;;;;;;;;;466485;28;962;-73
2023/09/25 01:22:42;;;;;;;3.05;1.90;;;;;;;;;;464865;28;1047;-73
2023/09/25 01:22:57;;;;;;;3.50;1.90;;;;;;;;;;468209;28;1444;-73
2023/09/25 01:23:12;;;;;;;3.92;2.00;;;;;;;;;;467611;28;1165;-73
2023/09/25 01:23:28;;;;;;;3.93;2.00;;;;;;;;;;467617;28;1119;-73
2023/09/25 01:23:43;;;;;;;3.73;1.80;;;;;;;;;;464626;28;1319;-73
2023/09/25 01:23:58;;;;;;;3.33;1.70;;;;;;;;;;465933;28;978;-73
2023/09/25 01:24:14;;;;;;;2.83;1.70;;;;;;;;;;465404;28;1091;-74
2023/09/25 01:24:30;;;;;;;2.42;1.90;;;;;;;;;;465815;28;1326;-75
2023/09/25 01:24:45;;;;;;;2.80;2.00;;;;;;;;;;465535;28;1279;-75
2023/09/25 01:25:00;;;;;;;3.05;1.73;;;;;;;;;;466417;28;1233;-73
2023/09/25 01:25:17;;;;;;;3.20;1.80;;;;;;;;;;465063;28;1134;-73
2023/09/25 01:25:32;;;;;;;3.55;1.90;;;;;;;;;;464142;28;1544;-73
2023/09/25 01:25:47;;;;;;;3.45;1.80;;;;;;;;;;465728;28;1262;-73
2023/09/25 01:26:05;;;;;;;2.63;1.77;;;;;;;;;;466326;28;1019;-73
2023/09/25 01:26:20;;;;;;;2.47;1.70;;;;;;;;;;465479;28;1463;-73
2023/09/25 01:26:35;;;;;;;3.42;1.75;;;;;;;;;;465897;28;1013;-73
2023/09/25 01:26:51;;;;;;;3.23;1.90;;;;;;;;;;465389;28;1035;-73
2023/09/25 01:27:06;;;;;;;2.93;2.00;;;;;;;;;;465414;28;1109;-73
2023/09/25 01:27:22;;;;;;;2.72;1.83;;;;;;;;;;466000;28;1211;-73
2023/09/25 01:27:39;;;;;;;3.03;1.80;;;;;;;;;;466080;28;1051;-74
2023/09/25 01:27:55;;;;;;;3.28;1.85;;;;;;;;;;467862;28;968;-73
2023/09/25 01:28:10;;;;;;;3.63;1.80;;;;;;;;;;468020;28;1092;-73
2023/09/25 01:28:25;;;;;;;3.72;1.95;;;;;;;;;;467433;28;1133;-73
2023/09/25 01:28:41;;;;;;;3.27;2.00;;;;;;;;;;467461;28;1104;-73
2023/09/25 01:28:56;;;;;;;3.47;1.80;;;;;;;;;;467533;28;1164;-73
2023/09/25 01:29:12;;;;;;;2.75;1.73;;;;;;;;;;467953;28;1085;-73
2023/09/25 01:29:28;;;;;;;3.75;1.77;;;;;;;;;;467396;28;1172;-73
2023/09/25 01:29:43;;;;;;;5.00;1.90;;;;;;;;;;468328;28;1091;-72
2023/09/25 01:29:58;;;;;;;3.60;1.83;;;;;;;;;;467853;28;1050;-73
2023/09/25 01:30:15;;;;;;;2.70;1.80;;;;;;;;;;464946;28;1027;-73
2023/09/25 01:30:31;;;;;;;2.58;1.80;;;;;;;;;;466407;28;898;-73
2023/09/25 01:30:46;;;;;;;2.35;1.70;;;;;;;;;;467908;28;1095;-73
2023/09/25 01:31:03;;;;;;;2.60;1.60;;;;;;;;;;466204;28;1230;-73
2023/09/25 01:31:18;;;;;;;3.10;1.75;;;;;;;;;;467239;28;1331;-73
2023/09/25 01:31:34;;;;;;;4.13;1.80;;;;;;;;;;467955;28;954;-72
2023/09/25 01:31:49;;;;;;;3.67;1.83;;;;;;;;;;467114;28;1172;-72
2023/09/25 01:32:04;;;;;;;2.88;1.92;;;;;;;;;;467107;28;984;-73
2023/09/25 01:32:20;;;;;;;3.17;2.00;;;;;;;;;;467785;28;1565;-73
2023/09/25 01:32:37;;;;;;;3.27;2.07;;;;;;;;;;467980;28;957;-73
2023/09/25 01:32:53;;;;;;;3.50;2.00;;;;;;;;;;468434;28;1198;-73
2023/09/25 01:33:08;;;;;;;3.50;1.92;;;;;;;;;;467813;28;1179;-73
2023/09/25 01:33:25;;;;;;;3.43;2.17;;;;;;;;;;469022;28;2023;-73
2023/09/25 01:33:40;;;;;;;3.92;2.00;;;;;;;;;;468549;28;1090;-73
2023/09/25 01:33:56;;;;;;;4.00;1.90;;;;;;;;;;469319;28;1110;-74
2023/09/25 01:34:11;;;;;;;3.53;1.83;;;;;;;;;;466827;28;1296;-73
2023/09/25 01:34:26;;;;;;;3.17;1.75;;;;;;;;;;466542;28;1146;-73
2023/09/25 01:34:42;;;;;;;3.90;1.83;;;;;;;;;;465652;28;1299;-73
2023/09/25 01:34:57;;;;;;;4.20;2.03;;;;;;;;;;467221;28;1130;-73
2023/09/25 01:35:15;;;;;;;2.95;1.75;;;;;;;;;;468571;28;1030;-73
2023/09/25 01:35:30;;;;;;;2.13;1.50;;;;;;;;;;467432;28;1332;-72
2023/09/25 01:35:46;;;;;;;3.07;1.63;;;;;;;;;;468823;28;1177;-73
2023/09/25 01:36:01;;;;;;;3.33;1.70;;;;;;;;;;468988;28;1201;-73
2023/09/25 01:36:17;;;;;;;2.93;1.67;;;;;;;;;;469313;28;1122;-73
2023/09/25 01:36:32;;;;;;;2.70;1.70;;;;;;;;;;470095;28;988;-73
2023/09/25 01:36:48;;;;;;;2.60;1.75;;;;;;;;;;471419;28;1042;-72
2023/09/25 01:37:04;;;;;;;2.80;1.80;;;;;;;;;;471195;28;1072;-73
2023/09/25 01:37:19;;;;;;;3.20;1.77;;;;;;;;;;468692;28;1125;-73
2023/09/25 01:37:35;;;;;;;3.23;1.70;;;;;;;;;;468816;28;1082;-73
2023/09/25 01:37:55;;;;;;;2.70;1.70;;;;;;;;;;469427;28;1501;-73
2023/09/25 01:38:10;;;;;;;3.00;1.70;;;;;;;;;;470739;28;960;-73
2023/09/25 01:38:26;;;;;;;3.57;1.97;;;;;;;;;;468279;28;1165;-73
2023/09/25 01:38:42;;;;;;;4.43;2.20;;;;;;;;;;468223;28;1155;-73
2023/09/25 01:38:58;;;;;;;4.20;2.00;;;;;;;;;;469289;28;1389;-73